Lockhart, AL

6:37 PM CST en Diciembre 21, 2014 (GMT -0600)
Florala | Change Station
CLOSE
Current Station
Aeropuerto
Location: Florala,
Altura: 315 ft
Estaciones meteorológicas cercanas

Alt 315 ft 31.04 °N, 86.31 °W | Updated 32 minutes ago

Niebla
Niebla
55 ° F
Sensación térmica 55 ° F
N
0
Viento Variable Viento desde Norte

Hoy
Alta -- | Baja -- ° F
--% Posibilidad de precipitaciones
Ayer
Alta -- | Baja -- ° F
Precip. -- pul
6:39 AM 4:47 PM
Creciente menguante, 0% visible
Presión 30.06 pul
Visibilidad 1.8 Millas
Nubes Nublado 200 ft
Punto de rocío 54 ° F
Humedad 94%
Precipitaciones 0.00 pul
Espesor de la nieve No disponible.
UV 0 de una escala de 12
Polen 2.40 de una escala de 12
Calidad del aire No disponible.
Flu Activity No disponible.
SPECI K0J4 220005Z AUTO 00000KT 1 3/4SM BR OVC002 13/12 A3006 RMK AO2 $

More Conditions Fewer Conditions

Presión 30.06 pul
Visibilidad 1.8 Millas
Nubes Nublado 200 ft
Punto de rocío 54 ° F
Humedad 94%
Precipitaciones 0.00 pul
Espesor de la nieve No disponible.
UV 0 de una escala de 12
Polen 2.40 de una escala de 12
Calidad del aire No disponible.
Flu Activity No disponible.
SPECI K0J4 220005Z AUTO 00000KT 1 3/4SM BR OVC002 13/12 A3006 RMK AO2 $

More Conditions Fewer Conditions

10-Day Weather Forecast

Almanac

Astronomía

Dec. 21, 2014 Salida Puesta
Hora real
Crepúsculo civil
Crepúsculo náutico
Crepúsculo astronómico
Luna
Horas de luz
Horas de luz
Tomorrow will be .
, % of the Moon is Illuminated

Extremos de hoy

Máximos del estado Bajos del estado

Community

WunderPhotos

Upload Photos

1,779,510 ¡fotos cargadas!

WunderBlogs® & News

Nearby

Calidad del aire

  Calidad del aire Índice AQ Contaminante
Not available.

Grosos de nieve

Estación Profundido Altura

Actividad de terremotos

Ciudad Distance Mag. Tiempo y dato
Magnitud mínima muestra es 2,5.

Temperaturas de aguas costeras

Lugar Temperatura

Estaciones meteorológicas cercanas